createdAt,value
2018-12-12T00:00:06.627Z,100867.82
2018-12-12T00:02:34.784Z,100865.49
2018-12-12T00:05:03.169Z,100863.30
2018-12-12T00:07:31.456Z,100867.81
2018-12-12T00:09:59.653Z,100874.30
2018-12-12T00:12:27.746Z,100873.98
2018-12-12T00:14:56.051Z,100879.48
2018-12-12T00:17:25.335Z,100872.98
2018-12-12T00:19:53.646Z,100873.82
2018-12-12T00:22:21.712Z,100869.16
2018-12-12T00:24:50.286Z,100872.46
2018-12-12T00:27:18.596Z,100878.16
2018-12-12T00:29:46.720Z,100869.73
2018-12-12T00:32:15.019Z,100880.22
2018-12-12T00:34:43.142Z,100880.53
2018-12-12T00:37:11.540Z,100886.33
2018-12-12T00:39:39.838Z,100889.65
2018-12-12T00:42:08.182Z,100890.30
2018-12-12T00:44:36.354Z,100890.63
2018-12-12T00:47:05.138Z,100895.95
2018-12-12T00:49:33.466Z,100895.56
2018-12-12T00:52:01.640Z,100896.14
2018-12-12T00:54:30.501Z,100898.35
2018-12-12T00:56:58.780Z,100903.19
2018-12-12T00:59:27.012Z,100906.06
2018-12-12T01:01:55.380Z,100913.09
2018-12-12T01:04:23.644Z,100909.74
2018-12-12T01:06:51.752Z,100913.53
2018-12-12T01:09:19.842Z,100909.53
2018-12-12T01:11:53.526Z,100909.17
2018-12-12T01:14:21.690Z,100911.70
2018-12-12T01:16:50.012Z,100911.89
2018-12-12T01:19:18.144Z,100924.25
2018-12-12T01:21:46.328Z,100922.75
2018-12-12T01:24:14.441Z,100927.70
2018-12-12T01:26:42.749Z,100922.13
2018-12-12T01:29:10.893Z,100924.43
2018-12-12T01:31:39.139Z,100930.09
2018-12-12T01:34:07.405Z,100928.92
2018-12-12T01:36:35.451Z,100931.97
2018-12-12T01:39:06.210Z,100932.73
2018-12-12T01:41:34.595Z,100930.59
2018-12-12T01:44:02.807Z,100936.80
2018-12-12T01:46:30.990Z,100935.45
2018-12-12T01:48:59.117Z,100928.30
2018-12-12T01:51:27.283Z,100934.80
2018-12-12T01:53:55.441Z,100932.97
2018-12-12T01:56:23.699Z,100934.26
2018-12-12T01:58:51.773Z,100933.60
2018-12-12T02:01:20.092Z,100938.63
2018-12-12T02:03:48.196Z,100936.83
2018-12-12T02:06:16.292Z,100938.75
2018-12-12T02:08:46.248Z,100943.46
2018-12-12T02:11:14.732Z,100941.45
2018-12-12T02:13:42.847Z,100942.37
2018-12-12T02:16:11.148Z,100947.77
2018-12-12T02:18:42.204Z,100953.33
2018-12-12T02:21:10.437Z,100951.63
2018-12-12T02:23:38.544Z,100951.87
2018-12-12T02:26:06.635Z,100958.17
2018-12-12T02:28:34.944Z,100956.83
2018-12-12T02:31:03.173Z,100952.22
2018-12-12T02:33:31.484Z,100963.67
2018-12-12T02:35:59.775Z,100965.98
2018-12-12T02:38:27.895Z,100969.37
2018-12-12T02:40:56.686Z,100961.75
2018-12-12T02:43:25.305Z,100969.75
2018-12-12T02:45:53.414Z,100966.98
2018-12-12T02:48:21.752Z,100974.50
2018-12-12T02:50:49.898Z,100973.88
2018-12-12T02:53:18.179Z,100974.72
2018-12-12T02:55:46.906Z,100975.18
2018-12-12T02:58:15.244Z,100976.67
2018-12-12T03:00:43.468Z,100970.07
2018-12-12T03:03:11.754Z,100973.06
2018-12-12T03:05:40.502Z,100971.18
2018-12-12T03:08:08.930Z,100973.16
2018-12-12T03:10:37.015Z,100974.86
2018-12-12T03:13:05.260Z,100966.98
2018-12-12T03:15:33.485Z,100969.98
2018-12-12T03:18:01.799Z,100968.20
2018-12-12T03:20:30.074Z,100962.87
2018-12-12T03:22:58.201Z,100969.33
2018-12-12T03:25:26.364Z,100976.58
2018-12-12T03:27:54.467Z,100984.62
2018-12-12T03:30:22.684Z,100979.13
2018-12-12T03:32:50.991Z,100981.40
2018-12-12T03:35:19.112Z,100985.09
2018-12-12T03:37:47.312Z,100984.92
2018-12-12T03:40:15.661Z,100989.61
2018-12-12T03:42:44.650Z,100988.67
2018-12-12T03:45:12.747Z,100996.09
2018-12-12T03:47:40.921Z,100995.02
2018-12-12T03:50:09.404Z,100999.09
2018-12-12T03:52:37.722Z,100994.27
2018-12-12T03:55:06.497Z,100991.80
2018-12-12T03:57:34.629Z,100986.95
2018-12-12T04:00:03.070Z,100994.79
2018-12-12T04:02:32.069Z,100999.44
2018-12-12T04:05:00.192Z,100998.73
2018-12-12T04:07:29.448Z,100997.52
2018-12-12T04:09:57.899Z,100998.89
2018-12-12T04:12:26.685Z,100992.94
2018-12-12T04:14:54.835Z,100992.70
2018-12-12T04:17:24.166Z,101004.22
2018-12-12T04:19:52.946Z,100997.06
2018-12-12T04:22:22.210Z,101004.45
2018-12-12T04:24:51.315Z,100997.16
2018-12-12T04:27:20.348Z,101005.95
2018-12-12T04:29:48.695Z,101015.16
2018-12-12T04:32:16.791Z,101008.81
2018-12-12T04:34:45.073Z,101005.69
2018-12-12T04:37:13.309Z,101009.16
2018-12-12T04:39:41.632Z,101011.31
2018-12-12T04:42:09.996Z,101009.49
2018-12-12T04:44:38.327Z,101017.69
2018-12-12T04:47:06.511Z,101017.63
2018-12-12T04:49:34.810Z,101018.08
2018-12-12T04:52:02.998Z,101015.17
2018-12-12T04:54:32.166Z,101014.81
2018-12-12T04:57:00.871Z,101012.34
2018-12-12T04:59:29.834Z,101015.26
2018-12-12T05:01:58.911Z,101014.25
2018-12-12T05:04:27.257Z,101012.72
2018-12-12T05:06:55.419Z,101010.66
2018-12-12T05:09:24.398Z,101015.06
2018-12-12T05:11:53.648Z,101014.33
2018-12-12T05:14:21.897Z,101016.47
2018-12-12T05:16:50.053Z,101025.64
2018-12-12T05:19:18.954Z,101014.41
2018-12-12T05:21:47.062Z,101020.34
2018-12-12T05:24:15.787Z,101024.78
2018-12-12T05:26:44.074Z,101026.84
2018-12-12T05:29:12.176Z,101026.56
2018-12-12T05:31:40.542Z,101024.34
2018-12-12T05:34:08.888Z,101026.69
2018-12-12T05:36:37.064Z,101030.84
2018-12-12T05:39:06.923Z,101031.13
2018-12-12T05:41:35.191Z,101035.44
2018-12-12T05:44:03.612Z,101033.73
2018-12-12T05:46:31.927Z,101034.42
2018-12-12T05:49:00.802Z,101041.09
2018-12-12T05:51:28.963Z,101034.31
2018-12-12T05:53:57.281Z,101043.21
2018-12-12T05:56:25.491Z,101036.66
2018-12-12T05:58:53.881Z,101043.16
2018-12-12T06:01:22.124Z,101046.52
2018-12-12T06:03:50.314Z,101050.45
2018-12-12T06:06:18.501Z,101041.98
2018-12-12T06:08:46.696Z,101041.70
2018-12-12T06:11:14.793Z,101047.13
2018-12-12T06:13:42.934Z,101044.86
2018-12-12T06:16:11.225Z,101045.39
2018-12-12T06:18:39.422Z,101055.00
2018-12-12T06:21:07.487Z,101054.90
2018-12-12T06:23:35.656Z,101051.37
2018-12-12T06:26:03.853Z,101055.64
2018-12-12T06:28:33.120Z,101062.03
2018-12-12T06:31:02.203Z,101061.39
2018-12-12T06:33:30.327Z,101068.75
2018-12-12T06:35:58.935Z,101066.14
2018-12-12T06:38:28.065Z,101070.52
2018-12-12T06:40:56.845Z,101071.31
2018-12-12T06:43:25.820Z,101075.83
2018-12-12T06:45:53.909Z,101071.36
2018-12-12T06:48:22.787Z,101074.34
2018-12-12T06:50:51.525Z,101076.95
2018-12-12T06:53:20.228Z,101081.06
2018-12-12T06:55:48.376Z,101079.61
2018-12-12T06:58:16.421Z,101077.53
2018-12-12T07:00:44.927Z,101080.36
2018-12-12T07:03:13.048Z,101079.09
2018-12-12T07:05:41.507Z,101083.47
2018-12-12T07:08:09.648Z,101084.16
2018-12-12T07:10:37.797Z,101090.45
2018-12-12T07:13:05.906Z,101089.10
2018-12-12T07:15:34.049Z,101089.26
2018-12-12T07:18:02.248Z,101089.33
2018-12-12T07:20:30.508Z,101095.61
2018-12-12T07:22:59.728Z,101097.20
2018-12-12T07:25:27.952Z,101102.11
2018-12-12T07:27:56.100Z,101099.02
2018-12-12T07:30:25.095Z,101105.75
2018-12-12T07:32:53.190Z,101104.67
2018-12-12T07:35:21.342Z,101111.48
2018-12-12T07:37:49.680Z,101111.44
2018-12-12T07:40:17.790Z,101115.97
2018-12-12T07:42:45.912Z,101122.25
2018-12-12T07:45:14.167Z,101117.12
2018-12-12T07:47:42.435Z,101117.30
2018-12-12T07:50:11.519Z,101128.59
2018-12-12T07:52:40.626Z,101123.80
2018-12-12T07:55:08.898Z,101130.19
2018-12-12T07:57:37.069Z,101131.69
2018-12-12T08:00:06.329Z,101135.22
2018-12-12T08:02:34.482Z,101141.55
2018-12-12T08:05:02.753Z,101150.26
2018-12-12T08:07:30.933Z,101153.02
2018-12-12T08:09:59.103Z,101150.53
2018-12-12T08:12:27.413Z,101149.72
2018-12-12T08:14:55.620Z,101155.48
2018-12-12T08:17:24.473Z,101149.84
2018-12-12T08:19:52.595Z,101155.53
2018-12-12T08:22:20.705Z,101156.81
2018-12-12T08:24:48.916Z,101158.88
2018-12-12T08:27:17.236Z,101155.65
2018-12-12T08:29:45.451Z,101159.70
2018-12-12T08:32:13.768Z,101160.66
2018-12-12T08:34:41.922Z,101167.11
2018-12-12T08:37:10.183Z,101173.28
2018-12-12T08:39:38.381Z,101179.70
2018-12-12T08:42:06.557Z,101174.99
2018-12-12T08:44:34.716Z,101174.99
2018-12-12T08:47:03.062Z,101177.51
2018-12-12T08:49:31.198Z,101184.70
2018-12-12T08:51:59.312Z,101184.92
2018-12-12T08:54:27.475Z,101190.89
2018-12-12T08:56:56.391Z,101194.00
2018-12-12T08:59:24.788Z,101195.05
2018-12-12T09:01:52.946Z,101202.20
2018-12-12T09:04:21.274Z,101207.71
2018-12-12T09:06:49.670Z,101209.20
2018-12-12T09:09:17.906Z,101205.52
2018-12-12T09:11:46.312Z,101206.27
2018-12-12T09:14:14.562Z,101209.30
2018-12-12T09:16:43.611Z,101207.25
2018-12-12T09:19:12.026Z,101217.12
2018-12-12T09:21:40.199Z,101212.02
2018-12-12T09:24:08.379Z,101213.60
2018-12-12T09:26:36.494Z,101214.77
2018-12-12T09:29:04.758Z,101213.60
2018-12-12T09:31:32.874Z,101219.22
2018-12-12T09:34:01.032Z,101213.69
2018-12-12T09:36:29.334Z,101222.81
2018-12-12T09:38:57.419Z,101221.81
2018-12-12T09:41:25.508Z,101222.20
2018-12-12T09:43:53.819Z,101224.98
2018-12-12T09:46:22.019Z,101224.67
2018-12-12T09:48:50.147Z,101233.14
2018-12-12T09:51:18.299Z,101227.16
2018-12-12T09:53:48.604Z,101232.39
2018-12-12T09:56:16.829Z,101225.56
2018-12-12T09:58:45.049Z,101231.63
2018-12-12T10:01:13.265Z,101229.29
2018-12-12T10:03:41.435Z,101230.30
2018-12-12T10:06:09.596Z,101227.47
2018-12-12T10:08:37.811Z,101230.30
2018-12-12T10:11:05.954Z,101223.67
2018-12-12T10:13:34.148Z,101221.62
2018-12-12T10:16:03.021Z,101226.77
2018-12-12T10:18:31.345Z,101232.63
2018-12-12T10:20:59.480Z,101237.09
2018-12-12T10:26:15.869Z,101223.95
2018-12-12T10:28:44.064Z,101221.94
2018-12-12T10:31:12.241Z,101224.88
2018-12-12T10:33:40.392Z,101226.30
2018-12-12T10:36:08.567Z,101225.17
2018-12-12T10:38:36.691Z,101225.38
2018-12-12T10:41:04.847Z,101223.63
2018-12-12T10:43:33.079Z,101227.11
2018-12-12T10:46:01.233Z,101228.77
2018-12-12T10:48:29.396Z,101223.61
2018-12-12T10:50:57.533Z,101222.76
2018-12-12T10:53:25.746Z,101225.30
2018-12-12T10:55:53.920Z,101222.19
2018-12-12T10:58:22.073Z,101215.23
2018-12-12T11:00:55.753Z,101215.25
2018-12-12T11:03:44.213Z,101222.90
2018-12-12T11:06:09.927Z,101224.19
2018-12-12T11:08:38.870Z,101216.80
2018-12-12T11:11:07.173Z,101223.83
2018-12-12T11:13:35.259Z,101227.48
2018-12-12T11:16:03.418Z,101228.69
2018-12-12T11:18:31.671Z,101229.94
2018-12-12T11:20:59.847Z,101225.54
2018-12-12T11:23:27.959Z,101227.11
2018-12-12T11:25:56.076Z,101229.01
2018-12-12T11:28:24.215Z,101225.85
2018-12-12T11:30:52.362Z,101226.18
2018-12-12T11:33:20.608Z,101217.22
2018-12-12T11:35:49.706Z,101219.11
2018-12-12T11:38:17.880Z,101217.94
2018-12-12T11:40:46.156Z,101218.38
2018-12-12T11:43:15.162Z,101217.72
2018-12-12T11:45:43.328Z,101211.56
2018-12-12T11:48:11.626Z,101215.72
2018-12-12T11:50:39.750Z,101215.73
2018-12-12T11:53:07.892Z,101223.22
2018-12-12T11:55:36.046Z,101223.95
2018-12-12T11:58:04.352Z,101216.07
2018-12-12T12:00:32.494Z,101215.51
2018-12-12T12:03:00.671Z,101220.17
2018-12-12T12:05:28.842Z,101218.59
2018-12-12T12:07:56.927Z,101220.27
2018-12-12T12:10:25.235Z,101218.51
2018-12-12T12:13:00.372Z,101229.67
2018-12-12T12:15:28.506Z,101217.59
2018-12-12T12:17:56.676Z,101224.34
2018-12-12T12:20:24.827Z,101220.58
2018-12-12T12:22:53.990Z,101220.74
2018-12-12T12:25:22.164Z,101218.30
2018-12-12T12:27:50.512Z,101223.04
2018-12-12T12:30:18.829Z,101220.70
2018-12-12T12:32:47.016Z,101223.72
2018-12-12T12:35:15.207Z,101223.58
2018-12-12T12:37:46.379Z,101218.23
2018-12-12T12:40:15.001Z,101216.89
2018-12-12T12:42:43.417Z,101219.41
2018-12-12T12:45:11.600Z,101209.87
2018-12-12T12:47:39.810Z,101219.55
2018-12-12T12:50:08.439Z,101212.89
2018-12-12T12:52:36.626Z,101218.20
2018-12-12T12:55:05.559Z,101208.70
2018-12-12T12:57:34.258Z,101212.91
2018-12-12T13:00:02.708Z,101212.20
2018-12-12T13:02:30.881Z,101212.16
2018-12-12T13:04:58.987Z,101206.41
2018-12-12T13:07:27.070Z,101208.00
2018-12-12T13:09:55.237Z,101212.86
2018-12-12T13:12:23.476Z,101212.76
2018-12-12T13:14:51.740Z,101203.89
2018-12-12T13:17:19.906Z,101208.26
2018-12-12T13:19:48.016Z,101209.67
2018-12-12T13:22:16.213Z,101210.80
2018-12-12T13:24:44.378Z,101206.08
2018-12-12T13:27:12.523Z,101206.44
2018-12-12T13:29:40.606Z,101206.73
2018-12-12T13:32:08.739Z,101206.22
2018-12-12T13:34:37.241Z,101206.02
2018-12-12T13:37:05.598Z,101208.91
2018-12-12T13:39:33.759Z,101216.33
2018-12-12T13:42:01.896Z,101213.11
2018-12-12T13:44:31.058Z,101212.76
2018-12-12T13:46:59.185Z,101215.72
2018-12-12T13:49:27.363Z,101212.41
2018-12-12T13:51:55.557Z,101211.66
2018-12-12T13:54:23.729Z,101221.48
2018-12-12T13:56:51.877Z,101216.41
2018-12-12T13:59:20.957Z,101219.11
2018-12-12T14:01:49.777Z,101219.14
2018-12-12T14:04:22.795Z,101223.05
2018-12-12T14:06:48.070Z,101226.77
2018-12-12T14:09:16.229Z,101225.78
2018-12-12T14:11:44.483Z,101223.59
2018-12-12T14:14:12.653Z,101226.30
2018-12-12T14:16:41.173Z,101231.84
2018-12-12T14:19:09.378Z,101228.59
2018-12-12T14:21:37.635Z,101221.88
2018-12-12T14:24:05.921Z,101220.88
2018-12-12T14:26:34.778Z,101218.73
2018-12-12T14:29:03.964Z,101215.38
2018-12-12T14:31:32.108Z,101211.97
2018-12-12T14:34:03.275Z,101212.54
2018-12-12T14:36:31.530Z,101214.05
2018-12-12T14:39:00.466Z,101226.48
2018-12-12T14:41:28.618Z,101222.05
2018-12-12T14:43:56.772Z,101226.91
2018-12-12T14:46:25.696Z,101228.34
2018-12-12T14:48:54.564Z,101230.42
2018-12-12T14:51:22.852Z,101226.37
2018-12-12T14:53:51.123Z,101225.47
2018-12-12T14:56:19.394Z,101227.53
2018-12-12T14:58:47.680Z,101229.03
2018-12-12T15:01:15.866Z,101228.08
2018-12-12T15:03:45.771Z,101223.63
2018-12-12T15:06:14.374Z,101227.11
2018-12-12T15:08:42.504Z,101217.77
2018-12-12T15:11:10.661Z,101222.27
2018-12-12T15:13:38.852Z,101215.31
2018-12-12T15:16:07.078Z,101223.22
2018-12-12T15:18:35.245Z,101226.05
2018-12-12T15:21:03.605Z,101222.09
2018-12-12T15:23:31.822Z,101229.79
2018-12-12T15:25:59.973Z,101224.88
2018-12-12T15:28:28.173Z,101226.80
2018-12-12T15:30:56.348Z,101233.16
2018-12-12T15:33:24.442Z,101232.57
2018-12-12T15:35:52.873Z,101240.08
2018-12-12T15:38:21.023Z,101238.67
2018-12-12T15:40:49.166Z,101242.60
2018-12-12T15:43:17.323Z,101247.53
2018-12-12T15:45:45.479Z,101244.61
2018-12-12T15:48:13.684Z,101251.13
2018-12-12T15:50:41.785Z,101242.80
2018-12-12T15:53:10.079Z,101242.11
2018-12-12T15:55:38.226Z,101238.42
2018-12-12T15:58:06.443Z,101248.45
2018-12-12T16:00:35.917Z,101244.47
2018-12-12T16:03:05.146Z,101247.34
2018-12-12T16:05:33.465Z,101243.94
2018-12-12T16:08:01.627Z,101245.80
2018-12-12T16:10:29.890Z,101244.29
2018-12-12T16:12:58.086Z,101248.20
2018-12-12T16:15:26.288Z,101246.22
2018-12-12T16:17:55.428Z,101247.23
2018-12-12T16:20:23.588Z,101249.04
2018-12-12T16:22:51.735Z,101245.04
2018-12-12T16:25:19.880Z,101243.19
2018-12-12T16:27:48.004Z,101249.38
2018-12-12T16:30:16.226Z,101246.16
2018-12-12T16:32:51.078Z,101249.53
2018-12-12T16:35:19.254Z,101242.91
2018-12-12T16:37:47.604Z,101250.91
2018-12-12T16:40:16.426Z,101249.36
2018-12-12T16:42:45.530Z,101248.61
2018-12-12T16:45:13.924Z,101244.55
2018-12-12T16:47:43.185Z,101242.47
2018-12-12T16:50:11.720Z,101245.80
2018-12-12T16:52:39.870Z,101243.31
2018-12-12T16:55:08.312Z,101237.11
2018-12-12T16:57:36.474Z,101240.14
2018-12-12T17:00:08.178Z,101241.88
2018-12-12T17:02:36.918Z,101232.95
2018-12-12T17:05:05.604Z,101236.73
2018-12-12T17:07:34.199Z,101244.62
2018-12-12T17:10:04.602Z,101243.17
2018-12-12T17:12:32.761Z,101243.16
2018-12-12T17:15:01.616Z,101245.91
2018-12-12T17:17:29.736Z,101244.03
2018-12-12T17:19:58.061Z,101246.63
2018-12-12T17:22:26.443Z,101247.88
2018-12-12T17:24:54.640Z,101241.75
2018-12-12T17:27:23.538Z,101248.89
2018-12-12T17:29:51.710Z,101241.99
2018-12-12T17:32:19.857Z,101245.98
2018-12-12T17:34:47.990Z,101248.16
2018-12-12T17:37:16.117Z,101248.50
2018-12-12T17:39:44.277Z,101257.88
2018-12-12T17:42:12.499Z,101255.53
2018-12-12T17:44:40.684Z,101257.74
2018-12-12T17:47:08.816Z,101256.02
2018-12-12T17:49:36.979Z,101254.92
2018-12-12T17:52:05.197Z,101256.71
2018-12-12T17:54:33.384Z,101260.25
2018-12-12T17:57:01.509Z,101264.16
2018-12-12T17:59:29.652Z,101266.52
2018-12-12T18:01:57.782Z,101265.80
2018-12-12T18:04:26.126Z,101270.52
2018-12-12T18:06:54.285Z,101268.61
2018-12-12T18:09:22.342Z,101267.84
2018-12-12T18:11:50.609Z,101265.47
2018-12-12T18:14:18.790Z,101272.75
2018-12-12T18:16:46.962Z,101278.48
2018-12-12T18:19:15.127Z,101268.55
2018-12-12T18:21:43.276Z,101265.61
2018-12-12T18:24:11.411Z,101266.56
2018-12-12T18:26:39.651Z,101258.49
2018-12-12T18:29:07.899Z,101270.17
2018-12-12T18:31:36.116Z,101273.80
2018-12-12T18:34:04.471Z,101271.27
2018-12-12T18:36:32.658Z,101268.94
2018-12-12T18:39:00.863Z,101272.70
2018-12-12T18:41:29.066Z,101280.14
2018-12-12T18:43:57.208Z,101274.27
2018-12-12T18:46:25.668Z,101282.08
2018-12-12T18:48:53.882Z,101282.65
2018-12-12T18:51:22.112Z,101280.52
2018-12-12T18:53:50.289Z,101279.80
2018-12-12T18:56:18.455Z,101281.09
2018-12-12T18:58:46.696Z,101281.69
2018-12-12T19:01:14.878Z,101278.88
2018-12-12T19:03:43.216Z,101277.92
2018-12-12T19:06:11.473Z,101288.23
2018-12-12T19:08:39.636Z,101287.36
2018-12-12T19:11:07.921Z,101296.38
2018-12-12T19:13:36.131Z,101296.05
2018-12-12T19:16:04.429Z,101297.22
2018-12-12T19:18:32.542Z,101296.66
2018-12-12T19:21:00.797Z,101299.66
2018-12-12T19:23:29.549Z,101301.61
2018-12-12T19:25:57.741Z,101304.21
2018-12-12T19:28:25.949Z,101313.85
2018-12-12T19:30:54.157Z,101321.26
2018-12-12T19:33:22.321Z,101318.93
2018-12-12T19:35:50.613Z,101317.74
2018-12-12T19:38:18.761Z,101316.13
2018-12-12T19:40:46.958Z,101316.41
2018-12-12T19:43:15.141Z,101325.56
2018-12-12T19:45:43.376Z,101319.54
2018-12-12T19:48:11.657Z,101321.44
2018-12-12T19:50:39.843Z,101320.20
2018-12-12T19:53:08.027Z,101328.80
2018-12-12T19:55:36.219Z,101329.66
2018-12-12T19:58:04.393Z,101322.48
2018-12-12T20:00:32.546Z,101318.48
2018-12-12T20:03:00.725Z,101317.93
2018-12-12T20:05:28.840Z,101312.90
2018-12-12T20:07:57.037Z,101309.72
2018-12-12T20:13:15.001Z,101306.15
2018-12-12T20:15:44.348Z,101309.59
2018-12-12T20:18:12.730Z,101311.45
2018-12-12T20:20:40.983Z,101311.70
2018-12-12T20:23:09.359Z,101318.41
2018-12-12T20:25:37.621Z,101313.52
2018-12-12T20:28:06.721Z,101322.98
2018-12-12T20:30:35.496Z,101322.36
2018-12-12T20:33:04.212Z,101325.60
2018-12-12T20:35:32.341Z,101331.78
2018-12-12T20:38:00.560Z,101333.00
2018-12-12T20:40:28.706Z,101336.62
2018-12-12T20:42:56.937Z,101338.88
2018-12-12T20:45:25.094Z,101338.81
2018-12-12T20:47:53.200Z,101337.09
2018-12-12T20:50:21.299Z,101339.17
2018-12-12T20:52:49.486Z,101341.81
2018-12-12T20:55:17.692Z,101347.83
2018-12-12T20:57:45.921Z,101352.94
2018-12-12T21:00:14.321Z,101349.14
2018-12-12T21:02:42.439Z,101347.53
2018-12-12T21:05:10.650Z,101341.45
2018-12-12T21:07:38.753Z,101347.67
2018-12-12T21:10:07.392Z,101345.99
2018-12-12T21:12:35.495Z,101347.69
2018-12-12T21:15:06.593Z,101350.14
2018-12-12T21:17:34.965Z,101350.70
2018-12-12T21:20:04.397Z,101351.38
2018-12-12T21:22:32.527Z,101354.09
2018-12-12T21:25:00.643Z,101349.44
2018-12-12T21:27:28.829Z,101355.09
2018-12-12T21:29:57.049Z,101350.52
2018-12-12T21:32:25.363Z,101347.61
2018-12-12T21:34:53.610Z,101344.18
2018-12-12T21:37:21.712Z,101342.48
2018-12-12T21:39:49.849Z,101337.58
2018-12-12T21:42:18.038Z,101337.09
2018-12-12T21:44:46.455Z,101336.48
2018-12-12T21:47:14.781Z,101340.12
2018-12-12T21:49:42.949Z,101340.20
2018-12-12T21:52:11.189Z,101334.03
2018-12-12T21:54:39.383Z,101332.97
2018-12-12T21:57:08.573Z,101335.56
2018-12-12T21:59:36.779Z,101336.08
2018-12-12T22:02:05.234Z,101334.11
2018-12-12T22:04:37.305Z,101337.47
2018-12-12T22:07:03.895Z,101335.58
2018-12-12T22:09:32.088Z,101340.06
2018-12-12T22:12:00.185Z,101338.66
2018-12-12T22:14:28.615Z,101333.77
2018-12-12T22:16:56.751Z,101331.87
2018-12-12T22:19:24.881Z,101335.72
2018-12-12T22:21:53.019Z,101337.11
2018-12-12T22:24:21.162Z,101335.77
2018-12-12T22:26:49.285Z,101336.77
2018-12-12T22:29:17.427Z,101333.33
2018-12-12T22:31:45.598Z,101337.67
2018-12-12T22:34:13.728Z,101338.25
2018-12-12T22:36:42.549Z,101339.15
2018-12-12T22:39:10.725Z,101342.93
2018-12-12T22:41:38.891Z,101338.52
2018-12-12T22:44:07.043Z,101341.30
2018-12-12T22:46:35.241Z,101338.23
2018-12-12T22:49:03.389Z,101340.06
2018-12-12T22:51:31.539Z,101344.25
2018-12-12T22:53:59.853Z,101345.50
2018-12-12T22:56:28.117Z,101346.20
2018-12-12T22:58:57.670Z,101347.93
2018-12-12T23:01:26.867Z,101344.68
2018-12-12T23:03:56.059Z,101347.48
2018-12-12T23:06:24.160Z,101352.43
2018-12-12T23:08:52.261Z,101359.55
2018-12-12T23:11:20.570Z,101355.66
2018-12-12T23:13:48.890Z,101356.23
2018-12-12T23:16:17.363Z,101357.99
2018-12-12T23:18:45.499Z,101352.34
2018-12-12T23:21:13.686Z,101350.48
2018-12-12T23:23:41.838Z,101354.58
2018-12-12T23:26:09.948Z,101349.34
2018-12-12T23:28:38.115Z,101351.44
2018-12-12T23:31:06.237Z,101350.82
2018-12-12T23:33:34.390Z,101350.91
2018-12-12T23:36:02.669Z,101343.13
2018-12-12T23:38:30.786Z,101348.72
2018-12-12T23:40:58.934Z,101352.81
2018-12-12T23:43:27.069Z,101348.53
2018-12-12T23:45:55.288Z,101359.08
2018-12-12T23:48:23.414Z,101356.89
2018-12-12T23:50:51.533Z,101354.19
2018-12-12T23:53:19.642Z,101356.64
2018-12-12T23:55:47.993Z,101342.54
2018-12-12T23:58:16.112Z,101343.73
